Time;durP1;ratioP1;P1;durP2;ratioP2;P2;SDS_P1;SDS_P2;PMS_P1;PMS_P2;Temp;Humidity;BMP_temperature;BMP_pressure;BME280_temperature;BME280_humidity;BME280_pressure;Samples;Min_cycle;Max_cycle;Signal;HPM_P1;HPM_P2
2023/07/01 00:02:18;;;;;;;6.38;1.70;;;;;;;17.57;57.49;100741.66;7380950;19;19926;-64
2023/07/01 00:04:47;;;;;;;4.32;1.70;;;;;;;17.56;57.91;100731.78;7382886;19;19974;-65
2023/07/01 00:07:18;;;;;;;4.85;1.50;;;;;;;17.59;58.12;100730.56;7381490;19;19982;-65
2023/07/01 00:09:47;;;;;;;3.97;1.33;;;;;;;17.59;58.29;100727.84;7385890;19;19927;-65
2023/07/01 00:12:16;;;;;;;4.55;1.50;;;;;;;17.58;58.13;100724.28;7382933;19;19978;-65
2023/07/01 00:14:45;;;;;;;4.35;1.70;;;;;;;17.58;58.03;100727.00;7382801;19;19918;-65
2023/07/01 00:17:16;;;;;;;2.90;1.40;;;;;;;17.54;57.71;100717.59;7382953;19;19923;-65
2023/07/01 00:19:46;;;;;;;5.75;2.00;;;;;;;17.54;57.93;100711.31;7386475;19;19918;-65
2023/07/01 00:22:14;;;;;;;7.00;1.50;;;;;;;17.51;58.17;100707.16;7380986;19;20239;-65
2023/07/01 00:24:46;;;;;;;5.75;2.35;;;;;;;17.50;58.46;100700.03;7383273;19;20002;-65
2023/07/01 00:27:14;;;;;;;4.70;1.35;;;;;;;17.49;58.10;100698.38;7380980;19;20327;-65
2023/07/01 00:29:45;;;;;;;4.07;1.60;;;;;;;17.46;58.62;100696.09;7382233;19;20583;-64
2023/07/01 00:32:13;;;;;;;10.40;1.85;;;;;;;17.43;58.47;100685.63;7381099;19;20748;-66
2023/07/01 00:34:43;;;;;;;2.75;1.23;;;;;;;17.42;58.81;100678.53;7383561;19;19922;-66
2023/07/01 00:37:12;;;;;;;6.13;1.45;;;;;;;17.44;58.97;100675.59;7383265;19;20334;-65
2023/07/01 00:39:40;;;;;;;3.45;1.20;;;;;;;17.44;58.33;100665.53;7378780;19;19919;-66
2023/07/01 00:42:12;;;;;;;3.00;1.27;;;;;;;17.46;58.45;100670.75;7378220;19;19915;-65
2023/07/01 00:44:41;;;;;;;4.57;1.70;;;;;;;17.46;58.46;100662.59;7381289;19;19947;-65
2023/07/01 00:47:10;;;;;;;7.50;1.67;;;;;;;17.48;58.46;100657.72;7380707;19;19927;-65
2023/07/01 00:49:40;;;;;;;4.13;1.30;;;;;;;17.48;58.30;100660.44;7382085;19;19918;-66
2023/07/01 00:52:10;;;;;;;5.45;1.60;;;;;;;17.46;58.67;100652.53;7380137;19;19919;-65
2023/07/01 00:54:40;;;;;;;4.03;1.40;;;;;;;17.44;58.41;100648.34;7381795;19;19926;-66
2023/07/01 00:57:12;;;;;;;4.07;1.50;;;;;;;17.45;58.58;100639.13;7380966;19;21014;-65
2023/07/01 00:59:41;;;;;;;5.88;1.50;;;;;;;17.44;58.50;100641.00;7380527;19;22953;-66
2023/07/01 01:02:23;;;;;;;2.30;1.17;;;;;;;17.42;59.00;100634.97;7381409;19;20009;-66
2023/07/01 01:05:02;;;;;;;3.72;1.20;;;;;;;17.48;58.68;100635.94;7381404;19;19986;-65
2023/07/01 01:07:36;;;;;;;6.55;1.30;;;;;;;17.52;58.71;100629.81;7379926;19;19923;-65
2023/07/01 01:10:09;;;;;;;4.45;1.30;;;;;;;17.55;58.49;100626.66;7380466;19;19929;-66
2023/07/01 01:12:43;;;;;;;8.43;1.38;;;;;;;17.56;58.89;100616.59;7379871;19;19993;-66
2023/07/01 01:15:13;;;;;;;3.42;1.30;;;;;;;17.58;58.74;100609.03;7378996;19;19929;-65
2023/07/01 01:17:46;;;;;;;4.55;1.52;;;;;;;17.59;58.91;100607.97;7380458;19;19922;-65
2023/07/01 01:20:20;;;;;;;6.57;1.52;;;;;;;17.59;58.99;100599.81;7383882;19;19922;-65
2023/07/01 01:22:58;;;;;;;4.75;1.48;;;;;;;17.57;58.67;100596.44;7378334;19;20626;-66
2023/07/01 01:25:32;;;;;;;6.15;1.70;;;;;;;17.58;59.15;100595.41;7379746;19;19922;-65
2023/07/01 01:28:04;;;;;;;5.00;1.25;;;;;;;17.60;58.59;100593.31;7379358;19;19930;-65
2023/07/01 01:30:34;;;;;;;6.30;1.40;;;;;;;17.60;58.29;100583.22;7381545;19;20013;-65
2023/07/01 01:33:06;;;;;;;9.60;1.80;;;;;;;17.59;58.45;100567.97;7377096;19;20325;-65
2023/07/01 01:35:34;;;;;;;4.57;1.42;;;;;;;17.60;58.41;100571.50;7380142;19;19922;-65
2023/07/01 01:38:08;;;;;;;4.35;1.55;;;;;;;17.58;58.88;100560.84;7377845;19;20029;-65
2023/07/01 01:40:42;;;;;;;3.35;1.25;;;;;;;17.60;59.08;100571.50;7377817;19;20425;-65
2023/07/01 01:43:20;;;;;;;5.38;1.40;;;;;;;17.55;59.00;100555.81;7379678;19;20317;-65
2023/07/01 01:45:51;;;;;;;5.22;1.42;;;;;;;17.56;58.64;100560.19;7381230;19;19919;-65
2023/07/01 01:48:20;;;;;;;6.07;1.77;;;;;;;17.55;58.85;100564.00;7380312;19;20394;-65
2023/07/01 01:50:51;;;;;;;8.43;1.73;;;;;;;17.56;59.13;100562.09;7377468;19;19914;-65
2023/07/01 01:53:22;;;;;;;3.78;1.42;;;;;;;17.54;59.16;100553.31;7377206;19;19996;-65
2023/07/01 01:55:51;;;;;;;8.15;2.05;;;;;;;17.54;59.00;100554.16;7377023;19;20288;-65
2023/07/01 01:58:23;;;;;;;3.40;1.38;;;;;;;17.54;59.30;100547.88;7379004;19;19934;-65
2023/07/01 02:00:52;;;;;;;4.78;1.40;;;;;;;17.53;59.20;100543.47;7376903;19;19961;-65
2023/07/01 02:03:21;;;;;;;5.20;1.60;;;;;;;17.52;59.22;100544.53;7378179;19;19982;-65
2023/07/01 02:05:50;;;;;;;4.43;1.55;;;;;;;17.50;59.62;100542.06;7379562;19;19994;-65
2023/07/01 02:08:19;;;;;;;5.03;1.40;;;;;;;17.49;59.80;100537.66;7379204;19;20006;-65
2023/07/01 02:10:47;;;;;;;7.43;1.70;;;;;;;17.48;59.71;100537.88;7379287;19;20289;-65
2023/07/01 02:13:19;;;;;;;3.53;1.27;;;;;;;17.46;60.04;100529.97;7382181;19;19911;-65
2023/07/01 02:15:50;;;;;;;6.25;1.50;;;;;;;17.45;60.16;100531.03;7384759;19;19958;-65
2023/07/01 02:18:19;;;;;;;5.18;1.40;;;;;;;17.45;59.74;100516.56;7387983;19;19926;-65
2023/07/01 02:20:48;;;;;;;5.07;2.10;;;;;;;17.44;59.84;100520.34;7383494;19;19933;-65
2023/07/01 02:23:17;;;;;;;7.10;1.60;;;;;;;17.44;60.37;100521.19;7385676;19;19926;-65
2023/07/01 02:25:46;;;;;;;7.25;1.80;;;;;;;17.41;61.17;100527.09;7384244;19;19922;-65
2023/07/01 02:28:15;;;;;;;5.97;1.73;;;;;;;17.37;61.70;100525.06;7383394;19;19942;-65
2023/07/01 02:30:44;;;;;;;9.43;2.38;;;;;;;17.27;62.82;100524.75;7383925;19;19943;-65
2023/07/01 02:33:15;;;;;;;6.10;2.33;;;;;;;17.11;64.86;100529.78;7385069;19;19926;-65
2023/07/01 02:35:44;;;;;;;6.03;2.50;;;;;;;16.95;65.32;100505.91;7384592;19;19922;-64
2023/07/01 02:38:14;;;;;;;5.68;2.50;;;;;;;16.79;65.61;100510.06;7384161;19;20352;-66
2023/07/01 02:40:43;;;;;;;5.65;2.30;;;;;;;16.71;66.34;100504.06;7383341;19;20395;-65
2023/07/01 02:43:12;;;;;;;5.93;2.22;;;;;;;16.65;65.69;100507.72;7383503;19;19929;-65
2023/07/01 02:45:40;;;;;;;5.43;2.03;;;;;;;16.62;66.40;100495.38;7383343;19;19922;-65
2023/07/01 02:48:09;;;;;;;4.75;2.13;;;;;;;16.62;66.03;100480.94;7384268;19;19910;-65
2023/07/01 02:50:40;;;;;;;7.07;2.65;;;;;;;16.61;66.68;100485.56;7385496;19;19941;-65
2023/07/01 02:53:09;;;;;;;4.82;2.33;;;;;;;16.60;66.62;100478.47;7384511;19;20358;-65
2023/07/01 02:55:39;;;;;;;6.10;2.22;;;;;;;16.60;66.00;100474.91;7384220;19;19918;-65
2023/07/01 02:58:08;;;;;;;7.07;2.60;;;;;;;16.62;66.06;100475.50;7384010;19;19939;-65
2023/07/01 03:00:36;;;;;;;5.93;2.60;;;;;;;16.61;65.78;100465.72;7382560;19;19942;-65
2023/07/01 03:03:08;;;;;;;6.30;2.25;;;;;;;16.63;65.65;100469.03;7382875;19;19942;-64
2023/07/01 03:05:40;;;;;;;4.50;2.50;;;;;;;16.66;65.99;100463.94;7385860;19;20274;-65
2023/07/01 03:08:09;;;;;;;6.25;2.50;;;;;;;16.67;65.49;100471.06;7381280;19;19932;-65
2023/07/01 03:10:38;;;;;;;4.15;2.50;;;;;;;16.66;65.92;100461.22;7381830;19;19926;-66
2023/07/01 03:13:06;;;;;;;4.25;2.38;;;;;;;16.67;65.81;100462.06;7384238;19;19922;-65
2023/07/01 03:15:35;;;;;;;9.07;2.17;;;;;;;16.67;65.77;100470.22;7384278;19;19933;-65
2023/07/01 03:18:04;;;;;;;5.07;2.42;;;;;;;16.67;66.16;100459.34;7383545;19;20271;-64
2023/07/01 03:20:32;;;;;;;6.57;2.17;;;;;;;16.68;65.83;100456.41;7386364;19;19925;-66
2023/07/01 03:23:04;;;;;;;5.88;2.03;;;;;;;16.65;66.58;100450.59;7381977;19;19926;-65
2023/07/01 03:25:35;;;;;;;6.85;1.92;;;;;;;16.63;66.55;100441.81;7385440;19;19918;-65
2023/07/01 03:28:04;;;;;;;8.18;2.40;;;;;;;16.61;66.76;100442.03;7383031;19;20501;-65
2023/07/01 03:30:33;;;;;;;2.65;1.73;;;;;;;16.64;66.48;100443.50;7384951;19;19952;-65
2023/07/01 03:33:02;;;;;;;5.57;2.00;;;;;;;16.63;66.84;100437.22;7383665;19;20302;-65
2023/07/01 03:35:31;;;;;;;6.78;1.98;;;;;;;16.62;66.96;100440.16;7384628;19;20344;-65
2023/07/01 03:38:00;;;;;;;3.17;2.10;;;;;;;16.65;67.05;100428.84;7382518;19;20362;-65
2023/07/01 03:40:31;;;;;;;4.72;2.08;;;;;;;16.67;66.69;100424.00;7381704;19;19978;-65
2023/07/01 03:43:00;;;;;;;6.80;2.70;;;;;;;16.68;66.65;100418.34;7382219;19;20414;-65
2023/07/01 03:45:29;;;;;;;4.47;1.77;;;;;;;16.70;66.25;100415.38;7383473;19;19922;-65
2023/07/01 03:47:57;;;;;;;6.03;2.33;;;;;;;16.69;66.64;100413.72;7381736;19;19933;-65
2023/07/01 03:50:26;;;;;;;4.38;1.60;;;;;;;16.68;65.90;100423.78;7383930;19;19970;-65
2023/07/01 03:52:55;;;;;;;8.60;2.03;;;;;;;16.66;66.01;100425.03;7381484;19;19995;-65
2023/07/01 03:55:24;;;;;;;4.22;1.77;;;;;;;16.65;66.13;100417.97;7384751;19;19918;-65
2023/07/01 03:57:56;;;;;;;9.75;2.17;;;;;;;16.66;66.04;100414.16;7381639;19;19925;-65
2023/07/01 04:00:25;;;;;;;5.03;1.85;;;;;;;16.67;nan;100413.09;7379705;19;19930;-65
2023/07/01 04:02:54;;;;;;;3.08;1.98;;;;;;;16.68;65.74;100407.44;7383368;19;19925;-65
2023/07/01 04:05:23;;;;;;;3.55;2.13;;;;;;;16.64;66.22;100414.41;7383387;19;19945;-65
2023/07/01 04:07:52;;;;;;;5.25;2.28;;;;;;;16.62;66.27;100407.50;7381965;19;19923;-65
2023/07/01 04:10:21;;;;;;;4.80;2.03;;;;;;;16.58;66.59;100390.81;7383149;19;19954;-65
2023/07/01 04:12:49;;;;;;;5.28;2.08;;;;;;;16.57;66.59;100393.72;7382404;19;20911;-65
2023/07/01 04:15:21;;;;;;;6.45;2.20;;;;;;;16.58;67.05;100390.00;7380078;19;19936;-65
2023/07/01 04:17:51;;;;;;;3.83;1.90;;;;;;;16.55;67.40;100390.44;7380897;19;20605;-65
2023/07/01 04:20:21;;;;;;;6.47;2.20;;;;;;;16.56;66.92;100386.66;7385513;19;19926;-65
2023/07/01 04:22:50;;;;;;;6.72;2.13;;;;;;;16.52;67.52;100382.72;7381657;19;19929;-65
2023/07/01 04:25:18;;;;;;;5.13;2.10;;;;;;;16.48;67.59;100381.53;7382229;19;19926;-65
2023/07/01 04:27:47;;;;;;;6.45;1.95;;;;;;;16.44;68.31;100380.31;7381535;19;19926;-65
2023/07/01 04:30:17;;;;;;;4.93;2.40;;;;;;;16.40;69.05;100388.06;7381873;19;19923;-65
2023/07/01 04:32:48;;;;;;;5.03;1.83;;;;;;;16.35;69.06;100375.16;7380996;19;19937;-65
2023/07/01 04:35:17;;;;;;;5.60;2.40;;;;;;;16.32;69.00;100370.19;7380771;19;19925;-65
2023/07/01 04:37:46;;;;;;;8.43;2.38;;;;;;;16.26;69.66;100378.44;7381904;19;20326;-65
2023/07/01 04:40:15;;;;;;;3.17;1.90;;;;;;;16.21;70.38;100372.84;7379434;19;20368;-65
2023/07/01 04:42:48;;;;;;;5.53;2.08;;;;;;;16.19;71.42;100374.94;7381076;19;19933;-65
2023/07/01 04:45:18;;;;;;;6.68;2.05;;;;;;;16.14;70.78;100375.59;7379638;19;19919;-65
2023/07/01 04:47:50;;;;;;;6.07;2.40;;;;;;;16.12;71.78;100385.06;7381073;19;19930;-65
2023/07/01 04:50:19;;;;;;;7.90;2.20;;;;;;;16.12;71.03;100380.47;7381545;19;20018;-64
2023/07/01 04:52:47;;;;;;;4.05;1.85;;;;;;;16.11;71.09;100372.53;7380142;19;20346;-65
2023/07/01 04:55:18;;;;;;;3.63;2.10;;;;;;;16.13;71.06;100367.69;7380612;19;19931;-65
2023/07/01 04:57:47;;;;;;;4.63;2.10;;;;;;;16.14;71.51;100366.63;7381369;19;20461;-65
2023/07/01 05:00:17;;;;;;;3.92;1.90;;;;;;;16.14;71.18;100370.19;7379113;19;19919;-65
2023/07/01 05:02:48;;;;;;;3.92;1.80;;;;;;;16.13;71.66;100357.66;7379545;19;19926;-65
2023/07/01 05:05:17;;;;;;;4.95;2.05;;;;;;;16.10;71.55;100363.53;7381440;19;19923;-65
2023/07/01 05:07:46;;;;;;;4.93;2.33;;;;;;;16.10;71.48;100351.81;7377901;19;19929;-65
2023/07/01 05:10:15;;;;;;;3.40;2.10;;;;;;;16.10;71.82;100352.66;7382631;19;19921;-65
2023/07/01 05:12:44;;;;;;;6.05;2.20;;;;;;;16.09;71.44;100342.03;7379762;19;19982;-65
2023/07/01 05:15:13;;;;;;;3.80;2.08;;;;;;;16.07;71.79;100347.69;7378649;19;20009;-65
2023/07/01 05:17:41;;;;;;;3.72;1.95;;;;;;;16.06;71.77;100342.47;7379984;19;19918;-65
2023/07/01 05:20:14;;;;;;;4.00;1.95;;;;;;;16.06;73.16;100339.75;7383844;19;19929;-65
2023/07/01 05:22:43;;;;;;;4.97;1.95;;;;;;;16.08;72.65;100330.34;7378820;19;19948;-65
2023/07/01 05:25:11;;;;;;;4.35;2.30;;;;;;;16.10;72.22;100344.50;7380349;19;19981;-65
2023/07/01 05:27:40;;;;;;;4.18;2.05;;;;;;;16.11;72.63;100335.31;7378891;19;19929;-65
2023/07/01 05:30:10;;;;;;;2.97;2.08;;;;;;;16.11;72.75;100338.03;7380418;19;19921;-65
2023/07/01 05:32:39;;;;;;;4.25;1.95;;;;;;;16.09;72.91;100331.16;7380999;19;19926;-65
2023/07/01 05:35:09;;;;;;;5.22;2.08;;;;;;;16.07;73.19;100328.66;7380435;19;19918;-65
2023/07/01 05:37:40;;;;;;;4.40;2.10;;;;;;;16.02;74.22;100324.97;7378465;19;19937;-65
2023/07/01 05:40:11;;;;;;;4.05;2.00;;;;;;;15.99;74.11;100331.69;7378829;19;19922;-65
2023/07/01 05:42:40;;;;;;;4.95;2.15;;;;;;;15.99;74.37;100328.97;7380913;19;19931;-66
2023/07/01 05:45:10;;;;;;;9.50;2.65;;;;;;;16.00;74.33;100327.91;7382849;19;19922;-65
2023/07/01 05:47:38;;;;;;;6.00;2.63;;;;;;;16.01;74.65;100331.44;7381694;19;19947;-66
2023/07/01 05:50:08;;;;;;;4.07;1.98;;;;;;;16.04;74.83;100328.28;7387920;19;19986;-65
2023/07/01 05:52:40;;;;;;;4.45;2.13;;;;;;;16.06;75.61;100340.59;7382395;19;19915;-65
2023/07/01 05:55:10;;;;;;;4.40;2.08;;;;;;;16.07;74.69;100327.84;7385207;19;19922;-65
2023/07/01 05:57:39;;;;;;;4.28;2.20;;;;;;;16.06;74.36;100327.00;7384967;19;19918;-65
2023/07/01 06:00:09;;;;;;;5.10;2.20;;;;;;;16.07;75.23;100328.66;7384787;19;19918;-65
2023/07/01 06:02:40;;;;;;;5.13;2.03;;;;;;;16.08;75.06;100326.78;7384807;19;19929;-65
2023/07/01 06:05:10;;;;;;;4.60;2.30;;;;;;;16.11;75.20;100320.88;7386307;19;20357;-66
2023/07/01 06:07:41;;;;;;;5.43;2.17;;;;;;;16.12;75.94;100326.09;7385832;19;20681;-65
2023/07/01 06:10:11;;;;;;;7.30;2.08;;;;;;;16.16;75.11;100321.88;7384357;19;19978;-65
2023/07/01 06:12:40;;;;;;;3.13;1.90;;;;;;;16.18;74.91;100318.94;7385055;19;19955;-65
2023/07/01 06:15:09;;;;;;;4.78;2.38;;;;;;;16.22;74.58;100318.22;7385892;19;20327;-68
2023/07/01 06:17:38;;;;;;;4.22;2.05;;;;;;;16.27;75.17;100309.41;7384503;19;19974;-65
2023/07/01 06:20:08;;;;;;;4.65;2.17;;;;;;;16.31;75.05;100313.31;7391862;19;19946;-65
2023/07/01 06:22:37;;;;;;;4.55;2.00;;;;;;;16.32;74.97;100310.38;7381049;19;19926;-66
2023/07/01 06:25:10;;;;;;;4.28;1.80;;;;;;;16.33;75.49;100322.09;7386807;19;19926;-66
2023/07/01 06:27:39;;;;;;;4.95;2.28;;;;;;;16.37;75.55;100317.03;7383230;19;19937;-66
2023/07/01 06:30:10;;;;;;;6.65;2.42;;;;;;;16.40;74.29;100313.84;7386062;19;19926;-66
2023/07/01 06:32:39;;;;;;;7.07;2.35;;;;;;;16.44;74.46;100315.06;7383451;19;20345;-66
2023/07/01 06:35:08;;;;;;;4.85;2.22;;;;;;;16.46;74.55;100305.63;7385981;19;21346;-65
2023/07/01 06:37:37;;;;;;;4.15;2.00;;;;;;;16.48;74.55;100305.41;7384973;19;19926;-65
2023/07/01 06:40:12;;;;;;;4.65;2.40;;;;;;;16.49;75.27;100307.03;7385696;19;20009;-66
2023/07/01 06:42:41;;;;;;;5.45;2.35;;;;;;;16.52;75.31;100304.72;7382141;19;19927;-66
2023/07/01 06:45:10;;;;;;;6.75;2.10;;;;;;;16.54;75.52;100297.13;7384676;19;19927;-65
2023/07/01 06:47:39;;;;;;;4.50;2.30;;;;;;;16.52;75.97;100307.44;7385976;19;19915;-65
2023/07/01 06:50:11;;;;;;;6.22;2.13;;;;;;;16.55;75.11;100303.41;7384107;19;19952;-65
2023/07/01 06:52:40;;;;;;;7.65;2.65;;;;;;;16.54;75.27;100299.84;7383570;19;20634;-65
2023/07/01 06:55:13;;;;;;;4.75;2.40;;;;;;;16.50;76.41;100309.53;7383367;19;19923;-65
2023/07/01 06:57:42;;;;;;;4.35;2.10;;;;;;;16.52;75.79;100309.31;7383321;19;19922;-66
2023/07/01 07:00:13;;;;;;;5.88;2.30;;;;;;;16.55;76.76;100303.41;7383675;19;19986;-66
2023/07/01 07:02:42;;;;;;;6.97;3.13;;;;;;;16.50;77.48;100300.53;7382622;19;19928;-65
2023/07/01 07:05:11;;;;;;;3.83;2.15;;;;;;;16.49;77.36;100290.72;7384790;19;20008;-65
2023/07/01 07:07:40;;;;;;;5.28;2.88;;;;;;;16.42;78.44;100298.16;7383232;19;19918;-65
2023/07/01 07:10:12;;;;;;;3.47;2.38;;;;;;;16.38;79.73;100286.06;7383209;19;19951;-65
2023/07/01 07:12:41;;;;;;;7.07;3.25;;;;;;;16.37;79.83;100298.00;7384484;19;19926;-65
2023/07/01 07:15:11;;;;;;;9.05;3.30;;;;;;;16.34;79.20;100291.13;7379745;19;20013;-65
2023/07/01 07:17:40;;;;;;;4.38;3.22;;;;;;;16.32;79.81;100288.63;7382593;19;20003;-65
2023/07/01 07:20:11;;;;;;;7.28;2.80;;;;;;;16.33;80.63;100289.47;7388957;19;19941;-66
2023/07/01 07:22:40;;;;;;;5.10;3.00;;;;;;;16.34;80.10;100282.97;7379509;19;19922;-65
2023/07/01 07:25:16;;;;;;;7.30;2.78;;;;;;;16.33;80.96;100290.31;7384090;19;20009;-64
2023/07/01 07:27:45;;;;;;;5.68;2.95;;;;;;;16.32;80.69;100294.06;7382323;19;20032;-65
2023/07/01 07:30:15;;;;;;;3.42;2.63;;;;;;;16.33;80.53;100284.88;7384375;19;19922;-66
2023/07/01 07:32:47;;;;;;;6.43;3.10;;;;;;;16.37;81.21;100289.84;7382180;19;19923;-65
2023/07/01 07:35:16;;;;;;;7.90;3.33;;;;;;;16.35;81.14;100280.00;7382645;19;19922;-65
2023/07/01 07:37:45;;;;;;;6.45;2.80;;;;;;;16.39;80.58;100283.13;7382494;19;19948;-65
2023/07/01 07:40:17;;;;;;;4.35;2.50;;;;;;;16.41;81.90;100283.72;7382848;19;20367;-64
2023/07/01 07:42:46;;;;;;;6.68;2.78;;;;;;;16.44;81.34;100285.16;7380563;19;20370;-65
2023/07/01 07:45:19;;;;;;;3.80;2.83;;;;;;;16.48;80.41;100281.72;7383187;19;19923;-65
2023/07/01 07:47:47;;;;;;;4.22;2.72;;;;;;;16.51;80.85;100283.19;7383038;19;19923;-65
2023/07/01 07:50:21;;;;;;;4.53;2.33;;;;;;;16.57;81.03;100282.22;7381664;19;19939;-65
2023/07/01 07:52:50;;;;;;;6.97;2.80;;;;;;;16.59;81.34;100283.72;7382146;19;19993;-65
2023/07/01 07:55:22;;;;;;;5.07;2.67;;;;;;;16.58;81.61;100279.31;7382962;19;20253;-65
2023/07/01 07:57:51;;;;;;;3.85;2.45;;;;;;;16.58;81.41;100283.94;7383287;19;19997;-65
2023/07/01 08:00:20;;;;;;;3.92;2.80;;;;;;;16.58;80.66;100284.78;7383283;19;20386;-65
2023/07/01 08:02:50;;;;;;;6.03;2.70;;;;;;;16.56;81.32;100281.44;7380341;19;19926;-65
2023/07/01 08:05:21;;;;;;;3.53;2.35;;;;;;;16.56;81.13;100294.19;7381227;19;19939;-66
2023/07/01 08:07:50;;;;;;;4.07;2.85;;;;;;;16.56;80.65;100286.03;7382394;19;21264;-65
2023/07/01 08:10:22;;;;;;;4.55;2.70;;;;;;;16.57;81.42;100287.69;7379737;19;19922;-66
2023/07/01 08:12:50;;;;;;;3.10;2.70;;;;;;;16.59;80.55;100283.72;7382788;19;22961;-65
2023/07/01 08:15:20;;;;;;;3.70;2.40;;;;;;;16.62;81.11;100285.13;7380562;19;19947;-65
2023/07/01 08:17:48;;;;;;;6.47;2.50;;;;;;;16.65;80.70;100276.53;7380824;19;19924;-65
2023/07/01 08:20:17;;;;;;;3.58;2.60;;;;;;;16.71;80.94;100270.16;7387198;19;19939;-65
2023/07/01 08:22:46;;;;;;;5.72;2.80;;;;;;;16.74;81.00;100277.84;7378552;19;19994;-65
2023/07/01 08:25:15;;;;;;;5.90;2.80;;;;;;;16.76;80.85;100276.56;7382665;19;19991;-66
2023/07/01 08:27:46;;;;;;;3.95;2.40;;;;;;;16.85;81.72;100270.78;7379908;19;19928;-65
2023/07/01 08:30:16;;;;;;;6.00;2.67;;;;;;;16.86;81.22;100267.84;7383597;19;20350;-66
2023/07/01 08:32:44;;;;;;;4.28;2.45;;;;;;;16.91;80.69;100275.31;7382614;19;19932;-65
2023/07/01 08:35:13;;;;;;;3.42;2.60;;;;;;;16.92;80.60;100266.06;7381148;19;19926;-66
2023/07/01 08:37:42;;;;;;;3.85;2.53;;;;;;;16.94;80.63;100272.94;7380796;19;19923;-66
2023/07/01 08:40:12;;;;;;;2.78;2.28;;;;;;;16.96;80.72;100281.69;7381373;19;20030;-65
2023/07/01 08:42:48;;;;;;;3.92;3.17;;;;;;;16.98;80.62;100274.13;7378433;19;19919;-64
2023/07/01 08:45:23;;;;;;;3.92;2.30;;;;;;;16.97;81.66;100275.19;7381456;19;19986;-66
2023/07/01 08:47:52;;;;;;;3.53;2.65;;;;;;;17.02;80.33;100269.88;7380512;19;19994;-65
2023/07/01 08:50:22;;;;;;;4.55;3.13;;;;;;;17.03;81.03;100266.09;7380029;19;19934;-66
2023/07/01 08:52:59;;;;;;;3.47;2.45;;;;;;;17.06;81.48;100262.06;7380984;19;20280;-66
2023/07/01 08:55:28;;;;;;;4.32;2.88;;;;;;;17.08;80.94;100260.81;7380936;19;19919;-65
2023/07/01 08:57:57;;;;;;;3.45;2.80;;;;;;;17.14;80.67;100265.28;7384296;19;19926;-65
2023/07/01 09:00:30;;;;;;;3.40;2.58;;;;;;;17.17;80.58;100264.00;7380087;19;19952;-65
2023/07/01 09:03:01;;;;;;;5.85;3.22;;;;;;;17.17;80.76;100266.72;7378096;19;19986;-66
2023/07/01 09:05:30;;;;;;;3.55;2.60;;;;;;;17.18;80.32;100266.47;7380996;19;19925;-66
2023/07/01 09:07:59;;;;;;;4.90;3.22;;;;;;;17.20;80.75;100274.41;7378121;19;19923;-65
2023/07/01 09:10:28;;;;;;;4.18;2.83;;;;;;;17.23;80.23;100257.59;7382143;19;19927;-66
2023/07/01 09:12:56;;;;;;;4.88;2.88;;;;;;;17.22;80.23;100273.09;7378508;19;19925;-66
2023/07/01 09:15:42;;;;;;;4.65;3.45;;;;;;;17.24;80.19;100268.28;7378593;19;20243;-66
2023/07/01 09:18:22;;;;;;;4.97;3.00;;;;;;;17.21;81.35;100270.63;7380617;19;19946;-65
2023/07/01 09:20:51;;;;;;;4.15;2.90;;;;;;;17.29;80.62;100266.72;7381831;19;19926;-66
2023/07/01 09:23:30;;;;;;;5.45;3.17;;;;;;;17.24;81.60;100260.09;7382928;19;19943;-65
2023/07/01 09:26:14;;;;;;;4.07;2.97;;;;;;;17.21;82.10;100265.19;7387567;19;20901;-65
2023/07/01 09:28:44;;;;;;;4.88;3.22;;;;;;;17.24;81.00;100265.56;7387003;19;19919;-66
2023/07/01 09:31:17;;;;;;;6.60;2.83;;;;;;;17.23;81.87;100266.59;7386789;19;20520;-65
2023/07/01 09:34:00;;;;;;;3.10;2.67;;;;;;;17.19;82.82;100256.41;7386513;19;19918;-66
2023/07/01 09:36:30;;;;;;;5.28;3.28;;;;;;;17.25;81.33;100266.38;7385859;19;19926;-65
2023/07/01 09:39:01;;;;;;;4.07;3.10;;;;;;;17.28;81.91;100262.34;7384382;19;19935;-66
2023/07/01 09:41:30;;;;;;;4.72;3.17;;;;;;;17.34;81.83;100264.13;7385412;19;19926;-65
2023/07/01 09:44:00;;;;;;;3.90;3.17;;;;;;;17.37;81.46;100260.94;7384984;19;19948;-66
2023/07/01 09:46:46;;;;;;;5.65;3.13;;;;;;;17.33;83.43;100257.88;7386304;19;20172;-65
2023/07/01 09:49:15;;;;;;;7.75;3.05;;;;;;;17.33;82.14;100257.03;7385136;19;20312;-65
2023/07/01 09:51:51;;;;;;;3.92;3.40;;;;;;;17.29;83.72;100253.13;7385173;19;19925;-66
2023/07/01 09:54:31;;;;;;;5.55;3.78;;;;;;;17.31;83.35;100243.63;7384225;19;19922;-65
2023/07/01 09:57:01;;;;;;;5.25;3.63;;;;;;;17.36;82.12;100254.66;7384577;19;19923;-65
2023/07/01 09:59:30;;;;;;;4.75;3.70;;;;;;;17.38;83.20;100246.25;7386190;19;19998;-65
2023/07/01 10:02:02;;;;;;;6.65;4.10;;;;;;;17.42;83.43;100251.00;7384297;19;19930;-66
2023/07/01 10:04:33;;;;;;;5.45;3.67;;;;;;;17.46;82.80;100243.19;7385675;19;19923;-66
2023/07/01 10:07:03;;;;;;;6.03;3.95;;;;;;;17.50;82.59;100250.63;7385163;19;20291;-65
2023/07/01 10:09:32;;;;;;;5.55;3.85;;;;;;;17.52;82.51;100253.09;7386296;19;20283;-66
2023/07/01 10:12:02;;;;;;;6.32;4.13;;;;;;;17.51;83.00;100240.56;7385346;19;19926;-65
2023/07/01 10:14:35;;;;;;;5.00;3.42;;;;;;;17.49;83.53;100250.88;7384400;19;21919;-66
2023/07/01 10:17:07;;;;;;;5.13;3.58;;;;;;;17.52;83.75;100231.31;7385530;19;19922;-65
2023/07/01 10:19:39;;;;;;;5.05;4.00;;;;;;;17.57;83.18;100243.16;7389910;19;19958;-65
2023/07/01 10:22:25;;;;;;;5.57;3.65;;;;;;;17.64;84.63;100233.03;7384532;19;19926;-66
2023/07/01 10:25:03;;;;;;;5.68;3.90;;;;;;;17.74;83.13;100232.41;7385136;19;19966;-66
2023/07/01 10:28:05;;;;;;;5.15;3.22;;;;;;;17.76;83.22;100230.28;7382123;19;20006;-66
2023/07/01 10:31:04;;;;;;;3.28;2.97;;;;;;;17.84;83.15;100234.53;7378962;19;20014;-65
2023/07/01 10:33:57;;;;;;;4.72;3.28;;;;;;;17.92;82.61;100237.69;7383184;19;19926;-65
2023/07/01 10:36:26;;;;;;;5.32;3.45;;;;;;;18.05;81.44;100236.59;7386012;19;19914;-66
2023/07/01 10:39:15;;;;;;;5.88;3.22;;;;;;;18.08;81.72;100231.50;7386066;19;19937;-66
2023/07/01 10:41:55;;;;;;;4.10;3.10;;;;;;;18.08;82.14;100222.47;7399493;19;19922;-66
2023/07/01 10:44:25;;;;;;;3.63;2.85;;;;;;;18.16;81.55;100230.31;7383952;19;20001;-66
2023/07/01 10:47:17;;;;;;;3.50;2.90;;;;;;;18.13;82.39;100225.31;7383050;19;20020;-66
2023/07/01 10:50:10;;;;;;;5.18;2.95;;;;;;;18.15;81.91;100225.91;7383401;19;19922;-66
2023/07/01 10:53:06;;;;;;;3.95;2.33;;;;;;;18.19;82.17;100223.53;7381795;19;19949;-65
2023/07/01 10:55:43;;;;;;;4.93;3.13;;;;;;;18.25;81.61;100217.13;7385224;19;19939;-66
2023/07/01 10:58:17;;;;;;;7.55;3.28;;;;;;;18.27;81.94;100225.88;7383958;19;19926;-66
2023/07/01 11:00:47;;;;;;;4.45;3.28;;;;;;;18.28;81.56;100212.00;7383818;19;19989;-66
2023/07/01 11:03:47;;;;;;;6.60;3.22;;;;;;;18.29;82.41;100216.38;7382671;19;19922;-65
2023/07/01 11:06:19;;;;;;;4.10;3.28;;;;;;;18.38;82.39;100220.34;7383226;19;19926;-66
2023/07/01 11:08:49;;;;;;;5.47;3.45;;;;;;;18.45;81.50;100212.03;7381807;19;19922;-66
2023/07/01 11:11:26;;;;;;;5.60;3.00;;;;;;;18.44;81.94;100218.56;7384138;19;19949;-65
2023/07/01 11:14:03;;;;;;;4.82;3.60;;;;;;;18.45;82.30;100222.94;7383225;19;22635;-66
2023/07/01 11:16:33;;;;;;;5.07;3.35;;;;;;;18.49;80.92;100216.75;7384574;19;20358;-66
2023/07/01 11:19:04;;;;;;;4.90;3.30;;;;;;;18.49;81.56;100207.75;7386008;19;19943;-66
2023/07/01 11:21:36;;;;;;;5.00;3.05;;;;;;;18.45;82.08;100217.50;7384536;19;19937;-65
2023/07/01 11:24:06;;;;;;;6.22;3.65;;;;;;;18.49;81.32;100213.19;7380338;19;20296;-66
2023/07/01 11:26:39;;;;;;;3.83;2.80;;;;;;;18.55;81.92;100213.06;7384701;19;19922;-66
2023/07/01 11:29:12;;;;;;;4.90;3.75;;;;;;;18.52;83.04;100216.28;7383762;19;20555;-66
2023/07/01 11:31:41;;;;;;;5.63;4.10;;;;;;;18.47;81.61;100215.34;7383466;19;19952;-66
2023/07/01 11:34:13;;;;;;;5.93;4.20;;;;;;;18.47;81.79;100210.72;7382875;19;19922;-66
2023/07/01 11:36:48;;;;;;;7.28;4.55;;;;;;;18.49;82.25;100224.13;7383936;19;20224;-66
2023/07/01 11:39:18;;;;;;;6.45;4.47;;;;;;;18.57;81.78;100213.66;7382654;19;20668;-66
2023/07/01 11:41:50;;;;;;;6.07;4.38;;;;;;;18.54;82.35;100216.91;7384017;19;19922;-66
2023/07/01 11:44:21;;;;;;;;;;;;;;;18.42;83.56;100228.91;7382596;19;20307;-66